Аэропорт: Гянджа. Гянджа

ICAO: UBBG

METAR:
2018/05/20 23:00
UBBG 202300Z 20006KT 9999 FEW040CB BKN100 18/16 Q1015 R30/190065 NOSIG 
METAR:
2018/05/20 18:00
TAF UBBG 201700Z 2018/2118 VRB02KT 9999 SCT040 BKN100 TX27/2112Z TN17/2102Z 
      TEMPO 2100/2104 26008KT 
      BECMG 2109/2111 08010KT 
      TEMPO 2112/2118 SCT030CB BKN060